עמוד ראשי
METAR-TAF:

METAR-TAF

שדות תעופה :

דאחלה, מרוקו

קו רוחב: 23-43-05N, קו אורך: 015-55-55W, גובה: 11מטר

תצפית מזג אוויר נוכחית

הדו"ח נערך לפני 3 שעות ו 22דקות, בשעה 21:00 UTC
רוח 23קשר מכיוון צפון/צפון-מזרח
טמפרטורת 20 צלסיוס
לחות 78%
לחץ 1017 hPa
ראות: 8000מטר

METAR: GMMH 122100Z 03023KT 8000 NSC 20/16 Q1017 NOSIG

זמן: 01:22 (00:22 UTC)

תחזית

הדו"ח נערך לפני 1 שעות ו 22דקות, בשעה 23:00 UTC
תחזית בתוקף מ 13 ב 00 UTC עד 14 ב 06 UTC
רוח 20קשר מכיוון צפון/צפון-מזרח
ראות: 8000מטר

TAF: GMMH 122300Z 1300/1406 02020KT 8000 NSC

תצפיות ותחזיות מזג אוויר לגבי יותר מ- 4,000 שדות תעופה ברחבי העולם. דוחות METAR ו- TAF.

התחנות הזמינות מסומנות בנקודות צהובות ואדומות על גבי המפה.

העבר את העכבר לנקודה הצבעונית על מנת לראות את שם התחנה.

לאחר מכן, לחץ כדי לראות את תוכן ואת תחזיות מזג האוויר.

כדי לשנות את המפה: לחץ על הכפתורים הירוקים עם הפלוס השחור כדי להתקרב; על הכפתור הירוק עם המקף כדי להתרחק; או בחיצים הירוקים למפות סמוכות.


METAR-TAF: